Time;durP1;ratioP1;P1;durP2;ratioP2;P2;SDS_P1;SDS_P2;PMS_P1;PMS_P2;Temp;Humidity;BMP_temperature;BMP_pressure;BME280_temperature;BME280_humidity;BME280_pressure;Samples;Min_cycle;Max_cycle;Signal;HPM_P1;HPM_P2
2021/12/18 00:00:40;;;;;;;21.35;14.65;;;;;;;2.43;100;97056.52;;;;
2021/12/18 00:01:41;;;;;;;21.35;14.65;;;;;;;2.43;100;97056.52;;;;
2021/12/18 00:02:42;;;;;;;21.35;14.65;;;;;;;2.43;100;97056.52;;;;
2021/12/18 00:03:42;;;;;;;21.35;14.65;;;;;;;2.43;100;97056.52;;;;
2021/12/18 00:04:43;;;;;;;21.35;14.65;;;;;;;2.43;100;97056.52;;;;
2021/12/18 00:05:44;;;;;;;21.35;14.65;;;;;;;2.43;100;97056.52;;;;
2021/12/18 00:06:44;;;;;;;21.35;14.65;;;;;;;2.43;100;97056.52;;;;
2021/12/18 00:07:45;;;;;;;21.35;14.65;;;;;;;2.43;100;97056.52;;;;
2021/12/18 00:08:46;;;;;;;23.75;15.25;;;;;;;2.35;100;97052.84;;;;
2021/12/18 00:09:48;;;;;;;23.75;15.25;;;;;;;2.35;100;97052.84;;;;
2021/12/18 00:10:48;;;;;;;23.75;15.25;;;;;;;2.35;100;97052.84;;;;
2021/12/18 00:11:50;;;;;;;23.75;15.25;;;;;;;2.35;100;97052.84;;;;
2021/12/18 00:12:51;;;;;;;23.75;15.25;;;;;;;2.35;100;97052.84;;;;
2021/12/18 00:13:52;;;;;;;23.75;15.25;;;;;;;2.35;100;97052.84;;;;
2021/12/18 00:14:53;;;;;;;23.75;15.25;;;;;;;2.35;100;97052.84;;;;
2021/12/18 00:15:53;;;;;;;23.75;15.25;;;;;;;2.35;100;97052.84;;;;
2021/12/18 00:16:54;;;;;;;23.75;15.25;;;;;;;2.35;100;97052.84;;;;
2021/12/18 00:17:55;;;;;;;23.75;15.25;;;;;;;2.35;100;97052.84;;;;
2021/12/18 00:18:57;;;;;;;23.75;15.25;;;;;;;2.35;100;97052.84;;;;
2021/12/18 00:19:58;;;;;;;25.3;16.35;;;;;;;2.29;100;97072.05;;;;
2021/12/18 00:20:59;;;;;;;25.3;16.35;;;;;;;2.29;100;97072.05;;;;
2021/12/18 00:22:00;;;;;;;25.3;16.35;;;;;;;2.29;100;97072.05;;;;
2021/12/18 00:23:00;;;;;;;25.3;16.35;;;;;;;2.29;100;97072.05;;;;
2021/12/18 00:24:01;;;;;;;25.3;16.35;;;;;;;2.29;100;97072.05;;;;
2021/12/18 00:25:02;;;;;;;25.3;16.35;;;;;;;2.29;100;97072.05;;;;
2021/12/18 00:26:03;;;;;;;25.3;16.35;;;;;;;2.29;100;97072.05;;;;
2021/12/18 00:27:04;;;;;;;25.3;16.35;;;;;;;2.29;100;97072.05;;;;
2021/12/18 00:28:05;;;;;;;25.3;16.35;;;;;;;2.29;100;97072.05;;;;
2021/12/18 00:29:06;;;;;;;25.3;16.35;;;;;;;2.29;100;97072.05;;;;
2021/12/18 00:30:06;;;;;;;25.3;16.35;;;;;;;2.29;100;97072.05;;;;
2021/12/18 00:31:09;;;;;;;26.2;16.75;;;;;;;2.29;100;97069.44;;;;
2021/12/18 00:32:10;;;;;;;26.2;16.75;;;;;;;2.29;100;97069.44;;;;
2021/12/18 00:33:11;;;;;;;26.2;16.75;;;;;;;2.29;100;97069.44;;;;
2021/12/18 00:34:12;;;;;;;26.2;16.75;;;;;;;2.29;100;97069.44;;;;
2021/12/18 00:35:12;;;;;;;26.2;16.75;;;;;;;2.29;100;97069.44;;;;
2021/12/18 00:36:13;;;;;;;26.2;16.75;;;;;;;2.29;100;97069.44;;;;
2021/12/18 00:37:14;;;;;;;26.2;16.75;;;;;;;2.29;100;97069.44;;;;
2021/12/18 00:38:14;;;;;;;26.2;16.75;;;;;;;2.29;100;97069.44;;;;
2021/12/18 00:39:15;;;;;;;26.2;16.75;;;;;;;2.29;100;97069.44;;;;
2021/12/18 00:40:20;;;;;;;26.2;16.75;;;;;;;2.29;100;97069.44;;;;
2021/12/18 00:41:28;;;;;;;26.2;16.75;;;;;;;2.29;100;97069.44;;;;
2021/12/18 00:42:39;;;;;;;28.1;17.6;;;;;;;2.32;100;97078.94;;;;
2021/12/18 00:44:01;;;;;;;28.1;17.6;;;;;;;2.32;100;97078.94;;;;
2021/12/18 00:45:02;;;;;;;28.1;17.6;;;;;;;2.32;100;97078.94;;;;
2021/12/18 00:46:04;;;;;;;28.1;17.6;;;;;;;2.32;100;97078.94;;;;
2021/12/18 00:47:05;;;;;;;28.1;17.6;;;;;;;2.32;100;97078.94;;;;
2021/12/18 00:48:06;;;;;;;28.1;17.6;;;;;;;2.32;100;97078.94;;;;
2021/12/18 00:49:07;;;;;;;28.1;17.6;;;;;;;2.32;100;97078.94;;;;
2021/12/18 00:50:10;;;;;;;28.1;17.6;;;;;;;2.32;100;97078.94;;;;
2021/12/18 00:51:16;;;;;;;28.1;17.6;;;;;;;2.32;100;97078.94;;;;
2021/12/18 00:52:17;;;;;;;28.1;17.6;;;;;;;2.32;100;97078.94;;;;
2021/12/18 00:53:18;;;;;;;30.05;17.65;;;;;;;2.36;100;97102.96;;;;
2021/12/18 00:54:18;;;;;;;30.05;17.65;;;;;;;2.36;100;97102.96;;;;
2021/12/18 00:55:20;;;;;;;30.05;17.65;;;;;;;2.36;100;97102.96;;;;
2021/12/18 00:56:21;;;;;;;30.05;17.65;;;;;;;2.36;100;97102.96;;;;
2021/12/18 00:57:22;;;;;;;30.05;17.65;;;;;;;2.36;100;97102.96;;;;
2021/12/18 00:58:23;;;;;;;30.05;17.65;;;;;;;2.36;100;97102.96;;;;
2021/12/18 00:59:23;;;;;;;30.05;17.65;;;;;;;2.36;100;97102.96;;;;
2021/12/18 01:00:24;;;;;;;30.05;17.65;;;;;;;2.36;100;97102.96;;;;
2021/12/18 01:01:26;;;;;;;30.05;17.65;;;;;;;2.36;100;97102.96;;;;
2021/12/18 01:02:30;;;;;;;30.05;17.65;;;;;;;2.36;100;97102.96;;;;
2021/12/18 01:03:31;;;;;;;31.15;18.55;;;;;;;2.38;100;97100.58;;;;
2021/12/18 01:04:31;;;;;;;31.15;18.55;;;;;;;2.38;100;97100.58;;;;
2021/12/18 01:05:32;;;;;;;31.15;18.55;;;;;;;2.38;100;97100.58;;;;
2021/12/18 01:06:34;;;;;;;31.15;18.55;;;;;;;2.38;100;97100.58;;;;
2021/12/18 01:07:34;;;;;;;31.15;18.55;;;;;;;2.38;100;97100.58;;;;
2021/12/18 01:08:35;;;;;;;31.15;18.55;;;;;;;2.38;100;97100.58;;;;
2021/12/18 01:09:51;;;;;;;31.15;18.55;;;;;;;2.38;100;97100.58;;;;
2021/12/18 01:11:09;;;;;;;31.15;18.55;;;;;;;2.38;100;97100.58;;;;
2021/12/18 01:12:10;;;;;;;31.15;18.55;;;;;;;2.38;100;97100.58;;;;
2021/12/18 01:13:16;;;;;;;31.15;18.55;;;;;;;2.38;100;97100.58;;;;
2021/12/18 01:14:32;;;;;;;31.15;18.55;;;;;;;2.38;100;97100.58;;;;
2021/12/18 01:15:36;;;;;;;31.15;18.55;;;;;;;2.38;100;97100.58;;;;
2021/12/18 01:16:45;;;;;;;31.15;18.55;;;;;;;2.38;100;97100.58;;;;
2021/12/18 01:23:00;;;;;;;31.15;18.55;;;;;;;2.38;100;97100.58;;;;
2021/12/18 01:24:02;;;;;;;31.15;18.55;;;;;;;2.38;100;97100.58;;;;
2021/12/18 01:25:02;;;;;;;31.15;18.55;;;;;;;2.38;100;97100.58;;;;
2021/12/18 01:26:04;;;;;;;31.05;16;;;;;;;2.35;100;97120.86;;;;
2021/12/18 01:27:05;;;;;;;31.05;16;;;;;;;2.35;100;97120.86;;;;
2021/12/18 01:28:06;;;;;;;31.05;16;;;;;;;2.35;100;97120.86;;;;
2021/12/18 01:29:06;;;;;;;31.05;16;;;;;;;2.35;100;97120.86;;;;
2021/12/18 01:30:07;;;;;;;31.05;16;;;;;;;2.35;100;97120.86;;;;
2021/12/18 01:31:11;;;;;;;31.05;16;;;;;;;2.35;100;97120.86;;;;
2021/12/18 01:32:11;;;;;;;31.05;16;;;;;;;2.35;100;97120.86;;;;
2021/12/18 01:33:12;;;;;;;31.05;16;;;;;;;2.35;100;97120.86;;;;
2021/12/18 01:34:13;;;;;;;31.05;16;;;;;;;2.35;100;97120.86;;;;
2021/12/18 01:35:14;;;;;;;31.05;16;;;;;;;2.35;100;97120.86;;;;
2021/12/18 01:36:14;;;;;;;31.05;16;;;;;;;2.35;100;97120.86;;;;
2021/12/18 01:37:15;;;;;;;31.95;15.15;;;;;;;2.21;100;97142.6;;;;
2021/12/18 01:38:17;;;;;;;31.95;15.15;;;;;;;2.21;100;97142.6;;;;
2021/12/18 01:39:17;;;;;;;31.95;15.15;;;;;;;2.21;100;97142.6;;;;
2021/12/18 01:40:18;;;;;;;31.95;15.15;;;;;;;2.21;100;97142.6;;;;
2021/12/18 01:41:20;;;;;;;31.95;15.15;;;;;;;2.21;100;97142.6;;;;
2021/12/18 01:43:26;;;;;;;31.95;15.15;;;;;;;2.21;100;97142.6;;;;
2021/12/18 01:44:53;;;;;;;31.95;15.15;;;;;;;2.21;100;97142.6;;;;
2021/12/18 01:46:11;;;;;;;31.95;15.15;;;;;;;2.21;100;97142.6;;;;
2021/12/18 01:51:16;;;;;;;31.95;15.15;;;;;;;2.21;100;97142.6;;;;
2021/12/18 01:52:20;;;;;;;37.3;16.85;;;;;;;2.04;100;97136.55;;;;
2021/12/18 01:53:20;;;;;;;37.3;16.85;;;;;;;2.04;100;97136.55;;;;
2021/12/18 01:54:22;;;;;;;37.3;16.85;;;;;;;2.04;100;97136.55;;;;
2021/12/18 01:55:22;;;;;;;37.3;16.85;;;;;;;2.04;100;97136.55;;;;
2021/12/18 01:56:27;;;;;;;37.3;16.85;;;;;;;2.04;100;97136.55;;;;
2021/12/18 01:57:28;;;;;;;37.3;16.85;;;;;;;2.04;100;97136.55;;;;
2021/12/18 01:58:29;;;;;;;35.65;15.75;;;;;;;1.89;100;97134.43;;;;
2021/12/18 01:59:29;;;;;;;35.65;15.75;;;;;;;1.89;100;97134.43;;;;
2021/12/18 02:00:36;;;;;;;35.65;15.75;;;;;;;1.89;100;97134.43;;;;
2021/12/18 02:01:39;;;;;;;35.65;15.75;;;;;;;1.89;100;97134.43;;;;
2021/12/18 02:02:39;;;;;;;35.65;15.75;;;;;;;1.89;100;97134.43;;;;
2021/12/18 02:03:40;;;;;;;35.65;15.75;;;;;;;1.89;100;97134.43;;;;
2021/12/18 02:04:41;;;;;;;35.65;15.75;;;;;;;1.89;100;97134.43;;;;
2021/12/18 02:05:42;;;;;;;35.65;15.75;;;;;;;1.89;100;97134.43;;;;
2021/12/18 02:06:43;;;;;;;35.65;15.75;;;;;;;1.89;100;97134.43;;;;
2021/12/18 02:07:43;;;;;;;35.65;15.75;;;;;;;1.89;100;97134.43;;;;
2021/12/18 02:08:44;;;;;;;35.65;15.75;;;;;;;1.89;100;97134.43;;;;
2021/12/18 02:09:59;;;;;;;35.85;15.95;;;;;;;1.82;100;97090.61;;;;
2021/12/18 02:11:01;;;;;;;35.85;15.95;;;;;;;1.82;100;97090.61;;;;
2021/12/18 02:12:03;;;;;;;35.85;15.95;;;;;;;1.82;100;97090.61;;;;
2021/12/18 02:13:10;;;;;;;35.85;15.95;;;;;;;1.82;100;97090.61;;;;
2021/12/18 02:19:33;;;;;;;35.85;15.95;;;;;;;1.82;100;97090.61;;;;
2021/12/18 02:20:40;;;;;;;35.7;15.55;;;;;;;1.79;100;97087.81;;;;
2021/12/18 02:21:43;;;;;;;35.7;15.55;;;;;;;1.79;100;97087.81;;;;
2021/12/18 02:22:44;;;;;;;35.7;15.55;;;;;;;1.79;100;97087.81;;;;
2021/12/18 02:23:45;;;;;;;35.7;15.55;;;;;;;1.79;100;97087.81;;;;
2021/12/18 02:24:45;;;;;;;35.7;15.55;;;;;;;1.79;100;97087.81;;;;
2021/12/18 02:25:46;;;;;;;35.7;15.55;;;;;;;1.79;100;97087.81;;;;
2021/12/18 02:26:47;;;;;;;35.7;15.55;;;;;;;1.79;100;97087.81;;;;
2021/12/18 02:27:49;;;;;;;35.7;15.55;;;;;;;1.79;100;97087.81;;;;
2021/12/18 02:28:50;;;;;;;35.7;15.55;;;;;;;1.79;100;97087.81;;;;
2021/12/18 02:29:52;;;;;;;35.7;15.55;;;;;;;1.79;100;97087.81;;;;
2021/12/18 02:30:53;;;;;;;35.7;15.55;;;;;;;1.79;100;97087.81;;;;
2021/12/18 02:31:56;;;;;;;39.95;17.75;;;;;;;1.75;100;97086.39;;;;
2021/12/18 02:32:58;;;;;;;39.95;17.75;;;;;;;1.75;100;97086.39;;;;
2021/12/18 02:33:58;;;;;;;39.95;17.75;;;;;;;1.75;100;97086.39;;;;
2021/12/18 02:35:04;;;;;;;39.95;17.75;;;;;;;1.75;100;97086.39;;;;
2021/12/18 02:36:08;;;;;;;39.95;17.75;;;;;;;1.75;100;97086.39;;;;
2021/12/18 02:37:12;;;;;;;39.95;17.75;;;;;;;1.75;100;97086.39;;;;
2021/12/18 02:38:16;;;;;;;39.95;17.75;;;;;;;1.75;100;97086.39;;;;
2021/12/18 02:39:24;;;;;;;39.95;17.75;;;;;;;1.75;100;97086.39;;;;
2021/12/18 02:41:05;;;;;;;39.95;17.75;;;;;;;1.75;100;97086.39;;;;
2021/12/18 02:42:11;;;;;;;39.95;17.75;;;;;;;1.75;100;97086.39;;;;
2021/12/18 02:43:12;;;;;;;34.8;16.2;;;;;;;1.77;100;97085.35;;;;
2021/12/18 02:44:12;;;;;;;34.8;16.2;;;;;;;1.77;100;97085.35;;;;
2021/12/18 02:45:13;;;;;;;34.8;16.2;;;;;;;1.77;100;97085.35;;;;
2021/12/18 02:46:19;;;;;;;34.8;16.2;;;;;;;1.77;100;97085.35;;;;
2021/12/18 02:47:20;;;;;;;34.8;16.2;;;;;;;1.77;100;97085.35;;;;
2021/12/18 02:48:20;;;;;;;34.8;16.2;;;;;;;1.77;100;97085.35;;;;
2021/12/18 02:49:21;;;;;;;34.8;16.2;;;;;;;1.77;100;97085.35;;;;
2021/12/18 02:50:22;;;;;;;34.8;16.2;;;;;;;1.77;100;97085.35;;;;
2021/12/18 02:51:22;;;;;;;34.8;16.2;;;;;;;1.77;100;97085.35;;;;
2021/12/18 02:52:24;;;;;;;34.8;16.2;;;;;;;1.77;100;97085.35;;;;
2021/12/18 02:53:28;;;;;;;37.85;17.05;;;;;;;1.79;100;97072.25;;;;
2021/12/18 02:54:29;;;;;;;37.85;17.05;;;;;;;1.79;100;97072.25;;;;
2021/12/18 02:55:29;;;;;;;37.85;17.05;;;;;;;1.79;100;97072.25;;;;
2021/12/18 02:56:30;;;;;;;37.85;17.05;;;;;;;1.79;100;97072.25;;;;
2021/12/18 02:57:31;;;;;;;37.85;17.05;;;;;;;1.79;100;97072.25;;;;
2021/12/18 02:58:32;;;;;;;37.85;17.05;;;;;;;1.79;100;97072.25;;;;
2021/12/18 02:59:36;;;;;;;37.85;17.05;;;;;;;1.79;100;97072.25;;;;
2021/12/18 03:00:45;;;;;;;37.85;17.05;;;;;;;1.79;100;97072.25;;;;
2021/12/18 03:01:45;;;;;;;37.85;17.05;;;;;;;1.79;100;97072.25;;;;
2021/12/18 03:02:46;;;;;;;37.85;17.05;;;;;;;1.79;100;97072.25;;;;
2021/12/18 03:03:48;;;;;;;37.85;17.05;;;;;;;1.79;100;97072.25;;;;
2021/12/18 03:04:54;;;;;;;39.7;16.45;;;;;;;1.76;100;97072.11;;;;
2021/12/18 03:06:04;;;;;;;39.7;16.45;;;;;;;1.76;100;97072.11;;;;
2021/12/18 03:07:09;;;;;;;39.7;16.45;;;;;;;1.76;100;97072.11;;;;
2021/12/18 03:08:16;;;;;;;39.7;16.45;;;;;;;1.76;100;97072.11;;;;
2021/12/18 03:09:48;;;;;;;39.7;16.45;;;;;;;1.76;100;97072.11;;;;
2021/12/18 03:24:54;;;;;;;43.3;16.75;;;;;;;1.75;100;97066;;;;
2021/12/18 03:25:57;;;;;;;43.3;16.75;;;;;;;1.75;100;97066;;;;
2021/12/18 03:26:58;;;;;;;40.05;17.6;;;;;;;1.79;100;97049.67;;;;
2021/12/18 03:27:59;;;;;;;40.05;17.6;;;;;;;1.79;100;97049.67;;;;
2021/12/18 03:29:00;;;;;;;40.05;17.6;;;;;;;1.79;100;97049.67;;;;
2021/12/18 03:30:01;;;;;;;40.05;17.6;;;;;;;1.79;100;97049.67;;;;
2021/12/18 03:31:02;;;;;;;40.05;17.6;;;;;;;1.79;100;97049.67;;;;
2021/12/18 03:32:02;;;;;;;40.05;17.6;;;;;;;1.79;100;97049.67;;;;
2021/12/18 03:33:04;;;;;;;40.05;17.6;;;;;;;1.79;100;97049.67;;;;
2021/12/18 03:34:04;;;;;;;40.05;17.6;;;;;;;1.79;100;97049.67;;;;
2021/12/18 03:35:05;;;;;;;40.05;17.6;;;;;;;1.79;100;97049.67;;;;
2021/12/18 03:36:08;;;;;;;40.05;17.6;;;;;;;1.79;100;97049.67;;;;
2021/12/18 03:37:09;;;;;;;40.05;17.6;;;;;;;1.79;100;97049.67;;;;
2021/12/18 03:38:10;;;;;;;44.89999;18.9;;;;;;;1.8;100;97042.88;;;;
2021/12/18 03:39:11;;;;;;;44.89999;18.9;;;;;;;1.8;100;97042.88;;;;
2021/12/18 03:40:13;;;;;;;44.89999;18.9;;;;;;;1.8;100;97042.88;;;;
2021/12/18 03:41:16;;;;;;;44.89999;18.9;;;;;;;1.8;100;97042.88;;;;
2021/12/18 03:42:16;;;;;;;44.89999;18.9;;;;;;;1.8;100;97042.88;;;;
2021/12/18 03:43:17;;;;;;;44.89999;18.9;;;;;;;1.8;100;97042.88;;;;
2021/12/18 03:44:17;;;;;;;44.89999;18.9;;;;;;;1.8;100;97042.88;;;;
2021/12/18 03:45:18;;;;;;;44.89999;18.9;;;;;;;1.8;100;97042.88;;;;
2021/12/18 03:46:20;;;;;;;44.89999;18.9;;;;;;;1.8;100;97042.88;;;;
2021/12/18 03:47:20;;;;;;;44.89999;18.9;;;;;;;1.8;100;97042.88;;;;
2021/12/18 03:48:21;;;;;;;45.65;19.25;;;;;;;1.83;100;97040.44;;;;
2021/12/18 03:49:22;;;;;;;45.65;19.25;;;;;;;1.83;100;97040.44;;;;
2021/12/18 03:50:22;;;;;;;45.65;19.25;;;;;;;1.83;100;97040.44;;;;
2021/12/18 03:51:23;;;;;;;45.65;19.25;;;;;;;1.83;100;97040.44;;;;
2021/12/18 03:52:23;;;;;;;45.65;19.25;;;;;;;1.83;100;97040.44;;;;
2021/12/18 03:53:24;;;;;;;45.65;19.25;;;;;;;1.83;100;97040.44;;;;
2021/12/18 03:54:24;;;;;;;45.65;19.25;;;;;;;1.83;100;97040.44;;;;
2021/12/18 03:55:26;;;;;;;45.65;19.25;;;;;;;1.83;100;97040.44;;;;
2021/12/18 03:56:27;;;;;;;45.65;19.25;;;;;;;1.83;100;97040.44;;;;
2021/12/18 03:57:28;;;;;;;45.65;19.25;;;;;;;1.83;100;97040.44;;;;
2021/12/18 03:58:28;;;;;;;45.65;19.25;;;;;;;1.83;100;97040.44;;;;
2021/12/18 03:59:29;;;;;;;40.2;17.1;;;;;;;1.83;100;97045.76;;;;
2021/12/18 04:00:30;;;;;;;40.2;17.1;;;;;;;1.83;100;97045.76;;;;
2021/12/18 04:01:30;;;;;;;40.2;17.1;;;;;;;1.83;100;97045.76;;;;
2021/12/18 04:02:31;;;;;;;40.2;17.1;;;;;;;1.83;100;97045.76;;;;
2021/12/18 04:03:32;;;;;;;40.2;17.1;;;;;;;1.83;100;97045.76;;;;
2021/12/18 04:04:32;;;;;;;40.2;17.1;;;;;;;1.83;100;97045.76;;;;
2021/12/18 04:05:33;;;;;;;40.2;17.1;;;;;;;1.83;100;97045.76;;;;
2021/12/18 04:06:37;;;;;;;40.2;17.1;;;;;;;1.83;100;97045.76;;;;
2021/12/18 04:07:42;;;;;;;40.2;17.1;;;;;;;1.83;100;97045.76;;;;
2021/12/18 04:08:43;;;;;;;40.2;17.1;;;;;;;1.83;100;97045.76;;;;
2021/12/18 04:09:43;;;;;;;40.2;17.1;;;;;;;1.83;100;97045.76;;;;
2021/12/18 04:10:44;;;;;;;46.69999;18.15;;;;;;;1.76;100;97039.31;;;;
2021/12/18 04:11:44;;;;;;;46.69999;18.15;;;;;;;1.76;100;97039.31;;;;
2021/12/18 04:12:46;;;;;;;46.69999;18.15;;;;;;;1.76;100;97039.31;;;;
2021/12/18 04:13:47;;;;;;;46.69999;18.15;;;;;;;1.76;100;97039.31;;;;
2021/12/18 04:14:48;;;;;;;46.69999;18.15;;;;;;;1.76;100;97039.31;;;;
2021/12/18 04:15:48;;;;;;;46.69999;18.15;;;;;;;1.76;100;97039.31;;;;
2021/12/18 04:16:49;;;;;;;46.69999;18.15;;;;;;;1.76;100;97039.31;;;;
2021/12/18 04:17:50;;;;;;;46.69999;18.15;;;;;;;1.76;100;97039.31;;;;
2021/12/18 04:18:50;;;;;;;46.69999;18.15;;;;;;;1.76;100;97039.31;;;;
2021/12/18 04:19:51;;;;;;;46.69999;18.15;;;;;;;1.76;100;97039.31;;;;
2021/12/18 04:20:51;;;;;;;46.69999;18.15;;;;;;;1.76;100;97039.31;;;;
2021/12/18 04:21:52;;;;;;;42.3;16.9;;;;;;;1.72;100;97044.08;;;;
2021/12/18 04:22:52;;;;;;;42.3;16.9;;;;;;;1.72;100;97044.08;;;;
2021/12/18 04:23:53;;;;;;;42.3;16.9;;;;;;;1.72;100;97044.08;;;;
2021/12/18 04:24:54;;;;;;;42.3;16.9;;;;;;;1.72;100;97044.08;;;;
2021/12/18 04:25:55;;;;;;;42.3;16.9;;;;;;;1.72;100;97044.08;;;;
2021/12/18 04:26:56;;;;;;;42.3;16.9;;;;;;;1.72;100;97044.08;;;;
2021/12/18 04:27:57;;;;;;;42.3;16.9;;;;;;;1.72;100;97044.08;;;;
2021/12/18 04:28:57;;;;;;;42.3;16.9;;;;;;;1.72;100;97044.08;;;;
2021/12/18 04:29:59;;;;;;;42.3;16.9;;;;;;;1.72;100;97044.08;;;;
2021/12/18 04:30:59;;;;;;;42.3;16.9;;;;;;;1.72;100;97044.08;;;;
2021/12/18 04:32:01;;;;;;;42.3;16.9;;;;;;;1.72;100;97044.08;;;;
2021/12/18 04:33:02;;;;;;;43.3;16.6;;;;;;;1.67;100;97055.64;;;;
2021/12/18 04:34:03;;;;;;;43.3;16.6;;;;;;;1.67;100;97055.64;;;;
2021/12/18 04:35:04;;;;;;;43.3;16.6;;;;;;;1.67;100;97055.64;;;;
2021/12/18 04:36:07;;;;;;;43.3;16.6;;;;;;;1.67;100;97055.64;;;;
2021/12/18 04:37:07;;;;;;;43.3;16.6;;;;;;;1.67;100;97055.64;;;;
2021/12/18 04:38:08;;;;;;;43.3;16.6;;;;;;;1.67;100;97055.64;;;;
2021/12/18 04:39:08;;;;;;;43.3;16.6;;;;;;;1.67;100;97055.64;;;;
2021/12/18 04:40:09;;;;;;;43.3;16.6;;;;;;;1.67;100;97055.64;;;;
2021/12/18 04:41:11;;;;;;;43.3;16.6;;;;;;;1.67;100;97055.64;;;;
2021/12/18 04:42:12;;;;;;;43.3;16.6;;;;;;;1.67;100;97055.64;;;;
2021/12/18 04:43:12;;;;;;;38.25;15.4;;;;;;;1.68;100;97057.78;;;;
2021/12/18 04:44:13;;;;;;;38.25;15.4;;;;;;;1.68;100;97057.78;;;;
2021/12/18 04:45:14;;;;;;;38.25;15.4;;;;;;;1.68;100;97057.78;;;;
2021/12/18 04:46:14;;;;;;;38.25;15.4;;;;;;;1.68;100;97057.78;;;;
2021/12/18 04:47:15;;;;;;;38.25;15.4;;;;;;;1.68;100;97057.78;;;;
2021/12/18 04:48:16;;;;;;;38.25;15.4;;;;;;;1.68;100;97057.78;;;;
2021/12/18 04:49:17;;;;;;;38.25;15.4;;;;;;;1.68;100;97057.78;;;;
2021/12/18 04:50:17;;;;;;;38.25;15.4;;;;;;;1.68;100;97057.78;;;;
2021/12/18 04:51:18;;;;;;;38.25;15.4;;;;;;;1.68;100;97057.78;;;;
2021/12/18 04:52:18;;;;;;;38.25;15.4;;;;;;;1.68;100;97057.78;;;;
2021/12/18 04:53:19;;;;;;;38.25;15.4;;;;;;;1.68;100;97057.78;;;;
2021/12/18 04:54:19;;;;;;;37;15.15;;;;;;;1.59;100;97074.1;;;;
2021/12/18 04:55:21;;;;;;;37;15.15;;;;;;;1.59;100;97074.1;;;;
2021/12/18 04:56:22;;;;;;;37;15.15;;;;;;;1.59;100;97074.1;;;;
2021/12/18 04:57:22;;;;;;;37;15.15;;;;;;;1.59;100;97074.1;;;;
2021/12/18 04:58:23;;;;;;;37;15.15;;;;;;;1.59;100;97074.1;;;;
2021/12/18 04:59:23;;;;;;;37;15.15;;;;;;;1.59;100;97074.1;;;;
2021/12/18 05:00:29;;;;;;;37;15.15;;;;;;;1.59;100;97074.1;;;;
2021/12/18 05:01:35;;;;;;;37;15.15;;;;;;;1.59;100;97074.1;;;;
2021/12/18 05:02:39;;;;;;;37;15.15;;;;;;;1.59;100;97074.1;;;;
2021/12/18 05:03:42;;;;;;;37;15.15;;;;;;;1.59;100;97074.1;;;;
2021/12/18 05:04:42;;;;;;;37;15.15;;;;;;;1.59;100;97074.1;;;;
2021/12/18 05:05:43;;;;;;;30.6;12.25;;;;;;;1.48;100;97067.56;;;;
2021/12/18 05:06:46;;;;;;;30.6;12.25;;;;;;;1.48;100;97067.56;;;;
2021/12/18 05:07:47;;;;;;;30.6;12.25;;;;;;;1.48;100;97067.56;;;;
2021/12/18 05:08:48;;;;;;;30.6;12.25;;;;;;;1.48;100;97067.56;;;;
2021/12/18 05:09:48;;;;;;;30.6;12.25;;;;;;;1.48;100;97067.56;;;;
2021/12/18 05:10:49;;;;;;;30.6;12.25;;;;;;;1.48;100;97067.56;;;;
2021/12/18 05:11:50;;;;;;;30.6;12.25;;;;;;;1.48;100;97067.56;;;;
2021/12/18 05:12:51;;;;;;;30.6;12.25;;;;;;;1.48;100;97067.56;;;;
2021/12/18 05:13:51;;;;;;;30.6;12.25;;;;;;;1.48;100;97067.56;;;;
2021/12/18 05:14:52;;;;;;;30.6;12.25;;;;;;;1.48;100;97067.56;;;;
2021/12/18 05:15:52;;;;;;;30.6;12.25;;;;;;;1.48;100;97067.56;;;;
2021/12/18 05:16:53;;;;;;;42.5;12.9;;;;;;;1.37;100;97081.39;;;;
2021/12/18 05:17:53;;;;;;;42.5;12.9;;;;;;;1.37;100;97081.39;;;;
2021/12/18 05:18:54;;;;;;;42.5;12.9;;;;;;;1.37;100;97081.39;;;;
2021/12/18 05:19:54;;;;;;;42.5;12.9;;;;;;;1.37;100;97081.39;;;;
2021/12/18 05:20:55;;;;;;;42.5;12.9;;;;;;;1.37;100;97081.39;;;;
2021/12/18 05:21:55;;;;;;;42.5;12.9;;;;;;;1.37;100;97081.39;;;;
2021/12/18 05:22:56;;;;;;;42.5;12.9;;;;;;;1.37;100;97081.39;;;;
2021/12/18 05:23:56;;;;;;;42.5;12.9;;;;;;;1.37;100;97081.39;;;;
2021/12/18 05:24:57;;;;;;;42.5;12.9;;;;;;;1.37;100;97081.39;;;;
2021/12/18 05:25:58;;;;;;;42.5;12.9;;;;;;;1.37;100;97081.39;;;;
2021/12/18 05:26:58;;;;;;;37.95;14.05;;;;;;;1.34;100;97079.02;;;;
2021/12/18 05:27:59;;;;;;;37.95;14.05;;;;;;;1.34;100;97079.02;;;;
2021/12/18 05:28:59;;;;;;;37.95;14.05;;;;;;;1.34;100;97079.02;;;;
2021/12/18 05:29:59;;;;;;;37.95;14.05;;;;;;;1.34;100;97079.02;;;;
2021/12/18 05:31:00;;;;;;;37.95;14.05;;;;;;;1.34;100;97079.02;;;;
2021/12/18 05:32:01;;;;;;;37.95;14.05;;;;;;;1.34;100;97079.02;;;;
2021/12/18 05:33:01;;;;;;;37.95;14.05;;;;;;;1.34;100;97079.02;;;;
2021/12/18 05:34:04;;;;;;;37.95;14.05;;;;;;;1.34;100;97079.02;;;;
2021/12/18 05:35:04;;;;;;;37.95;14.05;;;;;;;1.34;100;97079.02;;;;
2021/12/18 05:36:25;;;;;;;37.95;14.05;;;;;;;1.34;100;97079.02;;;;
2021/12/18 05:37:45;;;;;;;37.95;14.05;;;;;;;1.34;100;97079.02;;;;
2021/12/18 05:38:46;;;;;;;37;13.6;;;;;;;1.36;100;97079.3;;;;
2021/12/18 05:39:46;;;;;;;37;13.6;;;;;;;1.36;100;97079.3;;;;
2021/12/18 05:40:47;;;;;;;37;13.6;;;;;;;1.36;100;97079.3;;;;
2021/12/18 05:41:50;;;;;;;37;13.6;;;;;;;1.36;100;97079.3;;;;
2021/12/18 05:42:51;;;;;;;37;13.6;;;;;;;1.36;100;97079.3;;;;
2021/12/18 05:43:53;;;;;;;37;13.6;;;;;;;1.36;100;97079.3;;;;
2021/12/18 05:44:53;;;;;;;37;13.6;;;;;;;1.36;100;97079.3;;;;
2021/12/18 05:45:54;;;;;;;37;13.6;;;;;;;1.36;100;97079.3;;;;
2021/12/18 05:46:54;;;;;;;37;13.6;;;;;;;1.36;100;97079.3;;;;
2021/12/18 05:47:55;;;;;;;37;13.6;;;;;;;1.36;100;97079.3;;;;
2021/12/18 05:48:56;;;;;;;35.25001;12.55;;;;;;;1.34;100;97072.8;;;;
2021/12/18 05:49:56;;;;;;;35.25001;12.55;;;;;;;1.34;100;97072.8;;;;
2021/12/18 05:50:57;;;;;;;35.25001;12.55;;;;;;;1.34;100;97072.8;;;;
2021/12/18 05:51:57;;;;;;;35.25001;12.55;;;;;;;1.34;100;97072.8;;;;
2021/12/18 05:52:59;;;;;;;35.25001;12.55;;;;;;;1.34;100;97072.8;;;;
2021/12/18 05:54:00;;;;;;;35.25001;12.55;;;;;;;1.34;100;97072.8;;;;
2021/12/18 05:55:00;;;;;;;35.25001;12.55;;;;;;;1.34;100;97072.8;;;;
2021/12/18 05:56:01;;;;;;;35.25001;12.55;;;;;;;1.34;100;97072.8;;;;
2021/12/18 05:57:02;;;;;;;35.25001;12.55;;;;;;;1.34;100;97072.8;;;;
2021/12/18 05:58:04;;;;;;;35.25001;12.55;;;;;;;1.34;100;97072.8;;;;
2021/12/18 05:59:05;;;;;;;35.25001;12.55;;;;;;;1.34;100;97072.8;;;;
2021/12/18 06:00:05;;;;;;;28.4;12.35;;;;;;;1.37;100;97071.26;;;;
2021/12/18 06:01:08;;;;;;;28.4;12.35;;;;;;;1.37;100;97071.26;;;;
2021/12/18 06:02:09;;;;;;;28.4;12.35;;;;;;;1.37;100;97071.26;;;;
2021/12/18 06:03:10;;;;;;;28.4;12.35;;;;;;;1.37;100;97071.26;;;;
2021/12/18 06:04:10;;;;;;;28.4;12.35;;;;;;;1.37;100;97071.26;;;;
2021/12/18 06:05:11;;;;;;;28.4;12.35;;;;;;;1.37;100;97071.26;;;;
2021/12/18 06:06:12;;;;;;;28.4;12.35;;;;;;;1.37;100;97071.26;;;;
2021/12/18 06:07:27;;;;;;;28.4;12.35;;;;;;;1.37;100;97071.26;;;;
2021/12/18 06:08:31;;;;;;;28.4;12.35;;;;;;;1.37;100;97071.26;;;;
2021/12/18 06:09:32;;;;;;;28.4;12.35;;;;;;;1.37;100;97071.26;;;;
2021/12/18 06:10:37;;;;;;;28.4;12.35;;;;;;;1.37;100;97071.26;;;;
2021/12/18 06:11:40;;;;;;;24.9;10.25;;;;;;;1.33;100;97079.16;;;;
2021/12/18 06:12:40;;;;;;;24.9;10.25;;;;;;;1.33;100;97079.16;;;;
2021/12/18 06:13:41;;;;;;;24.9;10.25;;;;;;;1.33;100;97079.16;;;;
2021/12/18 06:14:41;;;;;;;24.9;10.25;;;;;;;1.33;100;97079.16;;;;
2021/12/18 06:15:42;;;;;;;24.9;10.25;;;;;;;1.33;100;97079.16;;;;
2021/12/18 06:16:42;;;;;;;24.9;10.25;;;;;;;1.33;100;97079.16;;;;
2021/12/18 06:17:43;;;;;;;24.9;10.25;;;;;;;1.33;100;97079.16;;;;
2021/12/18 06:18:44;;;;;;;24.9;10.25;;;;;;;1.33;100;97079.16;;;;
2021/12/18 06:19:46;;;;;;;24.9;10.25;;;;;;;1.33;100;97079.16;;;;
2021/12/18 06:20:47;;;;;;;24.9;10.25;;;;;;;1.33;100;97079.16;;;;
2021/12/18 06:21:47;;;;;;;24.9;10.25;;;;;;;1.33;100;97079.16;;;;
2021/12/18 06:22:48;;;;;;;22.35;10.25;;;;;;;1.25;100;97094.94;;;;
2021/12/18 06:23:48;;;;;;;22.35;10.25;;;;;;;1.25;100;97094.94;;;;
2021/12/18 06:24:51;;;;;;;22.35;10.25;;;;;;;1.25;100;97094.94;;;;
2021/12/18 06:25:51;;;;;;;22.35;10.25;;;;;;;1.25;100;97094.94;;;;
2021/12/18 06:26:52;;;;;;;22.35;10.25;;;;;;;1.25;100;97094.94;;;;
2021/12/18 06:27:52;;;;;;;22.35;10.25;;;;;;;1.25;100;97094.94;;;;
2021/12/18 06:28:53;;;;;;;22.35;10.25;;;;;;;1.25;100;97094.94;;;;
2021/12/18 06:29:54;;;;;;;22.35;10.25;;;;;;;1.25;100;97094.94;;;;
2021/12/18 06:30:55;;;;;;;22.35;10.25;;;;;;;1.25;100;97094.94;;;;
2021/12/18 06:31:55;;;;;;;22.35;10.25;;;;;;;1.25;100;97094.94;;;;
2021/12/18 06:32:56;;;;;;;26.95;10.65;;;;;;;1.2;100;97104.24;;;;
2021/12/18 06:33:56;;;;;;;26.95;10.65;;;;;;;1.2;100;97104.24;;;;
2021/12/18 06:34:57;;;;;;;26.95;10.65;;;;;;;1.2;100;97104.24;;;;
2021/12/18 06:35:57;;;;;;;26.95;10.65;;;;;;;1.2;100;97104.24;;;;
2021/12/18 06:36:59;;;;;;;26.95;10.65;;;;;;;1.2;100;97104.24;;;;
2021/12/18 06:37:59;;;;;;;26.95;10.65;;;;;;;1.2;100;97104.24;;;;
2021/12/18 06:39:00;;;;;;;26.95;10.65;;;;;;;1.2;100;97104.24;;;;
2021/12/18 06:40:00;;;;;;;26.95;10.65;;;;;;;1.2;100;97104.24;;;;
2021/12/18 06:41:02;;;;;;;26.95;10.65;;;;;;;1.2;100;97104.24;;;;
2021/12/18 06:42:03;;;;;;;26.95;10.65;;;;;;;1.2;100;97104.24;;;;
2021/12/18 06:43:04;;;;;;;26.95;10.65;;;;;;;1.2;100;97104.24;;;;
2021/12/18 06:44:05;;;;;;;24.1;10.15;;;;;;;1.16;100;97094.36;;;;
2021/12/18 06:45:06;;;;;;;24.1;10.15;;;;;;;1.16;100;97094.36;;;;
2021/12/18 06:46:08;;;;;;;24.1;10.15;;;;;;;1.16;100;97094.36;;;;
2021/12/18 06:47:08;;;;;;;24.1;10.15;;;;;;;1.16;100;97094.36;;;;